Time;durP1;ratioP1;P1;durP2;ratioP2;P2;SDS_P1;SDS_P2;PMS_P1;PMS_P2;Temp;Humidity;BMP_temperature;BMP_pressure;BME280_temperature;BME280_humidity;BME280_pressure;Samples;Min_cycle;Max_cycle;Signal;HPM_P1;HPM_P2
2023/08/16 00:04:37;;;;;;;7.05;4.43;;;;;;;22.88;71.22;101426.88;14938007;29;20104;-53
2023/08/16 00:12:13;;;;;;;10.07;4.50;;;;;;;22.53;73.03;101438.69;14897087;29;20071;-52
2023/08/16 00:19:47;;;;;;;5.10;4.47;;;;;;;22.50;72.34;101422.81;14852675;29;20051;-54
2023/08/16 00:27:20;;;;;;;8.13;4.15;;;;;;;22.53;72.02;101425.81;14852591;30;20134;-50
2023/08/16 00:34:54;;;;;;;5.50;3.90;;;;;;;22.37;72.21;101418.69;15044406;28;1094759;-56
2023/08/16 00:42:27;;;;;;;4.38;3.15;;;;;;;22.59;70.44;101407.47;15489811;28;20302;-58
2023/08/16 00:50:02;;;;;;;7.13;3.50;;;;;;;22.09;72.17;101404.41;15488935;28;20347;-56
2023/08/16 00:57:35;;;;;;;5.43;3.22;;;;;;;22.63;71.63;101425.00;15488232;28;20034;-56
2023/08/16 01:05:10;;;;;;;3.65;2.83;;;;;;;22.46;71.05;101416.22;15487857;28;20145;-55
2023/08/16 01:12:48;;;;;;;3.85;2.58;;;;;;;22.59;70.91;101421.16;15487702;28;20442;-54
2023/08/16 01:20:24;;;;;;;4.78;3.10;;;;;;;22.77;70.92;101419.78;15488247;28;20538;-55
2023/08/16 01:28:00;;;;;;;4.00;3.03;;;;;;;22.36;72.67;101438.94;15487174;28;20035;-53
2023/08/16 01:35:34;;;;;;;4.95;3.25;;;;;;;22.39;72.50;101435.66;15456721;28;20060;-60
2023/08/16 01:43:12;;;;;;;4.70;3.40;;;;;;;22.33;72.59;101434.81;15471172;28;20392;-57
2023/08/16 01:50:46;;;;;;;8.05;3.65;;;;;;;22.00;74.26;101438.00;15471100;28;20046;-51
2023/08/16 01:58:20;;;;;;;4.60;3.30;;;;;;;22.33;72.87;101437.53;15486638;28;20053;-52
2023/08/16 02:05:53;;;;;;;5.03;3.50;;;;;;;22.47;72.53;101443.31;15486119;28;20129;-57
2023/08/16 02:13:28;;;;;;;6.25;4.15;;;;;;;22.51;72.40;101433.47;15485840;28;20047;-51
2023/08/16 02:21:01;;;;;;;7.03;3.72;;;;;;;22.44;72.72;101432.13;15491006;28;20230;-53
2023/08/16 02:28:35;;;;;;;6.90;3.83;;;;;;;22.13;74.05;101426.59;15480450;28;20050;-52
2023/08/16 02:36:08;;;;;;;7.28;4.07;;;;;;;22.10;73.85;101414.28;15574564;28;20050;-55
2023/08/16 02:43:44;;;;;;;8.85;4.15;;;;;;;22.20;74.10;101421.69;15601966;28;20053;-53
2023/08/16 02:51:17;;;;;;;6.72;3.88;;;;;;;22.09;74.56;101429.00;15601919;28;20069;-59
2023/08/16 02:58:52;;;;;;;5.85;3.50;;;;;;;21.94;75.11;101439.09;15619656;28;20041;-57
2023/08/16 03:06:32;;;;;;;10.30;4.32;;;;;;;21.84;75.29;101443.44;15602023;28;20041;-61
2023/08/16 03:14:07;;;;;;;5.82;3.72;;;;;;;21.35;76.58;101446.50;15632996;28;20490;-61
2023/08/16 03:21:42;;;;;;;7.82;4.60;;;;;;;21.17;76.83;101466.03;15599940;28;20573;-61
2023/08/16 03:29:21;;;;;;;9.20;4.07;;;;;;;21.61;74.36;101457.56;15598355;28;20128;-58
2023/08/16 03:36:54;;;;;;;6.32;4.03;;;;;;;21.39;75.43;101472.19;15673219;28;20135;-60
2023/08/16 03:44:30;;;;;;;5.90;4.18;;;;;;;21.03;77.01;101470.28;15721777;28;20412;-58
2023/08/16 03:52:04;;;;;;;5.75;4.50;;;;;;;20.87;77.38;101478.38;15720761;28;20151;-60
2023/08/16 03:59:42;;;;;;;9.60;4.40;;;;;;;21.08;76.43;101478.53;15721996;28;20045;-60
2023/08/16 04:07:15;;;;;;;5.55;4.53;;;;;;;21.15;75.50;101476.38;15720827;28;20114;-58
2023/08/16 04:14:49;;;;;;;8.60;4.90;;;;;;;21.46;74.06;101487.53;15685487;28;20136;-60
2023/08/16 04:22:22;;;;;;;7.40;4.97;;;;;;;21.39;74.16;101490.50;15656962;28;20041;-60
2023/08/16 04:29:57;;;;;;;7.47;5.75;;;;;;;21.35;74.44;101503.03;15656806;28;20564;-61
2023/08/16 04:37:30;;;;;;;9.30;5.50;;;;;;;21.42;74.25;101511.81;15690634;28;20121;-60
2023/08/16 04:45:07;;;;;;;9.73;6.97;;;;;;;21.22;75.82;101508.94;15734487;28;20472;-60
2023/08/16 04:52:41;;;;;;;11.07;6.85;;;;;;;21.42;75.01;101505.53;15735022;28;20044;-61
2023/08/16 05:00:19;;;;;;;9.40;6.68;;;;;;;21.05;76.29;101511.81;15718197;28;20040;-60
2023/08/16 05:08:01;;;;;;;10.07;7.05;;;;;;;21.09;75.98;101511.03;15717934;28;20518;-61
2023/08/16 05:15:36;;;;;;;9.95;7.28;;;;;;;21.05;76.57;101522.72;15717944;28;20516;-61
2023/08/16 05:23:09;;;;;;;7.70;6.22;;;;;;;21.70;75.30;101521.53;15733824;28;20135;-61
2023/08/16 05:30:47;;;;;;;12.07;6.55;;;;;;;21.81;75.56;101538.81;15733746;28;20044;-61
2023/08/16 05:38:22;;;;;;;13.10;5.63;;;;;;;22.09;75.18;101543.03;15753632;28;20048;-60
2023/08/16 05:45:56;;;;;;;6.40;5.63;;;;;;;22.14;74.89;101552.09;15778249;28;20544;-60
2023/08/16 05:53:29;;;;;;;13.52;6.40;;;;;;;22.60;73.75;101554.13;15782230;28;20051;-60
2023/08/16 06:01:03;;;;;;;7.22;6.18;;;;;;;22.54;73.10;101558.78;15808982;28;20491;-60
2023/08/16 06:08:37;;;;;;;7.88;6.57;;;;;;;22.59;73.43;101572.47;15790789;28;20043;-61
2023/08/16 06:16:11;;;;;;;8.60;6.28;;;;;;;22.69;73.77;101584.53;15809082;28;20044;-61
2023/08/16 06:23:45;;;;;;;7.78;5.65;;;;;;;23.12;71.89;101591.44;15808657;28;20063;-61
2023/08/16 06:31:20;;;;;;;7.15;5.25;;;;;;;23.03;73.18;101593.09;15807896;28;20040;-61
2023/08/16 06:38:53;;;;;;;7.93;4.80;;;;;;;22.72;74.31;101595.78;15788272;28;20040;-61
2023/08/16 06:46:27;;;;;;;8.30;4.60;;;;;;;23.02;73.30;101596.94;15805907;28;20101;-61
2023/08/16 06:54:00;;;;;;;7.05;4.90;;;;;;;23.42;71.72;101598.84;15787813;28;20054;-61
2023/08/16 07:01:34;;;;;;;8.93;5.28;;;;;;;23.19;72.34;101600.22;15821476;28;20048;-61
2023/08/16 07:09:07;;;;;;;6.45;4.95;;;;;;;23.90;70.31;101602.06;15804027;28;20071;-61
2023/08/16 07:16:42;;;;;;;7.78;4.88;;;;;;;23.93;69.00;101593.31;15739663;28;20068;-61
2023/08/16 07:24:14;;;;;;;5.78;4.15;;;;;;;24.33;67.91;101596.97;15741169;28;20063;-61
2023/08/16 07:31:50;;;;;;;5.47;4.30;;;;;;;24.81;64.53;101595.38;15741118;28;20059;-62
2023/08/16 07:39:26;;;;;;;7.18;4.00;;;;;;;24.95;65.21;101606.53;15740624;28;20051;-61
2023/08/16 07:47:01;;;;;;;5.65;4.00;;;;;;;24.97;67.20;101607.06;15738060;28;20080;-62
2023/08/16 07:54:34;;;;;;;5.15;4.60;;;;;;;24.83;66.71;101623.34;15738175;28;20056;-62
2023/08/16 08:02:08;;;;;;;7.95;4.65;;;;;;;24.75;65.27;101626.69;15737400;28;20426;-62
2023/08/16 08:09:42;;;;;;;5.50;4.10;;;;;;;25.43;63.79;101613.03;15738675;28;20044;-62
2023/08/16 08:17:18;;;;;;;6.45;5.07;;;;;;;25.61;63.94;101613.41;15782638;28;20434;-61
2023/08/16 08:24:51;;;;;;;6.13;4.00;;;;;;;25.78;63.12;101626.72;15800915;28;20492;-62
2023/08/16 08:32:25;;;;;;;5.55;4.45;;;;;;;25.62;62.69;101626.88;15782459;28;20048;-61
2023/08/16 08:40:01;;;;;;;7.05;4.47;;;;;;;25.35;63.10;101641.13;15781676;28;20036;-61
2023/08/16 08:47:38;;;;;;;5.07;4.32;;;;;;;25.19;65.65;101639.63;15798921;28;20240;-63
2023/08/16 08:55:12;;;;;;;8.40;4.75;;;;;;;24.86;65.73;101646.69;15780197;28;20048;-63
2023/08/16 09:02:49;;;;;;;6.57;4.68;;;;;;;25.09;65.79;101647.94;15779221;28;20047;-63
2023/08/16 09:10:23;;;;;;;5.95;4.38;;;;;;;25.43;63.96;101653.44;15798654;28;20051;-62
2023/08/16 09:18:08;;;;;;;7.75;4.63;;;;;;;25.59;62.52;101656.84;15736364;28;20048;-63
2023/08/16 09:25:44;;;;;;;7.70;5.07;;;;;;;25.77;61.42;101649.84;15717111;28;20082;-64
2023/08/16 09:33:23;;;;;;;8.20;4.68;;;;;;;25.78;62.24;101651.47;15733990;28;20041;-63
2023/08/16 09:40:56;;;;;;;6.25;5.30;;;;;;;25.82;62.29;101639.63;15734008;28;20041;-64
2023/08/16 09:48:32;;;;;;;6.47;4.07;;;;;;;26.18;58.01;101619.97;15732854;28;20151;-64
2023/08/16 09:56:05;;;;;;;6.57;4.28;;;;;;;27.58;57.79;101637.75;15716483;28;20049;-65
2023/08/16 10:03:42;;;;;;;5.85;3.83;;;;;;;27.65;54.86;101625.22;15732827;28;20493;-64
2023/08/16 10:11:16;;;;;;;7.53;4.18;;;;;;;28.36;52.49;101617.50;15738101;28;20747;-65
2023/08/16 10:18:52;;;;;;;5.45;3.70;;;;;;;28.73;48.62;101615.59;15777250;28;20123;-64
2023/08/16 10:26:30;;;;;;;5.10;3.50;;;;;;;29.91;47.34;101599.63;15777122;28;20067;-64
2023/08/16 10:34:08;;;;;;;6.72;3.90;;;;;;;29.48;48.64;101602.97;15794877;28;20079;-65
2023/08/16 10:41:42;;;;;;;5.43;3.40;;;;;;;30.18;45.08;101598.59;15801006;28;20064;-64
2023/08/16 10:49:16;;;;;;;7.03;3.38;;;;;;;29.74;45.83;101598.41;15777254;28;20036;-64
2023/08/16 10:56:50;;;;;;;4.60;3.45;;;;;;;30.28;47.84;101605.78;15770065;28;20043;-64
2023/08/16 11:04:37;;;;;;;5.57;3.50;;;;;;;30.29;45.59;101610.19;15749061;28;20481;-64
2023/08/16 11:12:14;;;;;;;4.47;3.30;;;;;;;30.63;43.31;101606.63;15756778;28;20136;-63
2023/08/16 11:19:48;;;;;;;4.20;3.00;;;;;;;31.40;42.97;101596.66;15723619;28;20040;-63
2023/08/16 11:27:22;;;;;;;3.95;2.55;;;;;;;31.16;44.10;101602.72;15772884;28;20055;-63
2023/08/16 11:34:57;;;;;;;4.95;3.00;;;;;;;31.20;42.40;101598.16;15768203;28;20040;-63
2023/08/16 11:42:31;;;;;;;3.80;2.70;;;;;;;30.44;44.25;101596.66;15767628;28;20105;-63
2023/08/16 11:50:10;;;;;;;7.00;2.78;;;;;;;30.85;42.12;101598.19;15767928;28;20101;-63
2023/08/16 11:57:46;;;;;;;3.67;2.55;;;;;;;31.79;39.84;101587.19;15765837;28;20145;-63
2023/08/16 12:05:21;;;;;;;5.75;3.20;;;;;;;32.45;40.51;101583.91;15737803;28;20053;-63
2023/08/16 12:12:54;;;;;;;3.60;2.90;;;;;;;31.74;42.99;101581.84;15756935;28;20131;-63
2023/08/16 12:20:29;;;;;;;5.93;3.78;;;;;;;30.69;44.60;101586.75;15765839;28;20044;-64
2023/08/16 12:28:02;;;;;;;5.00;3.20;;;;;;;29.76;45.72;101587.03;15815344;28;20036;-64
2023/08/16 12:35:37;;;;;;;5.88;3.55;;;;;;;29.49;46.70;101579.72;15780973;28;20167;-64
2023/08/16 12:43:11;;;;;;;4.88;3.72;;;;;;;29.51;48.41;101582.97;15799481;28;20037;-64
2023/08/16 12:50:46;;;;;;;5.50;3.50;;;;;;;29.49;48.01;101575.00;15797437;28;20075;-64
2023/08/16 12:58:19;;;;;;;5.38;3.42;;;;;;;29.23;48.07;101579.56;15807410;28;20037;-65
2023/08/16 13:05:54;;;;;;;3.63;2.80;;;;;;;31.17;42.31;101565.53;15734589;28;20052;-64
2023/08/16 13:13:50;;;;;;;5.18;3.40;;;;;;;30.59;42.88;101573.22;15761849;28;20032;-65
2023/08/16 13:21:24;;;;;;;3.50;2.70;;;;;;;32.58;38.59;101559.78;15779562;28;20047;-65
2023/08/16 13:29:01;;;;;;;4.60;2.70;;;;;;;33.31;38.10;101554.50;15762383;28;20075;-64
2023/08/16 13:36:35;;;;;;;4.88;3.15;;;;;;;31.46;43.38;101553.72;15796695;28;20052;-65
2023/08/16 13:44:11;;;;;;;5.40;3.13;;;;;;;30.86;44.87;101554.63;15796874;28;20588;-65
2023/08/16 13:51:45;;;;;;;5.38;3.50;;;;;;;30.10;44.43;101553.09;15796596;28;20050;-65
2023/08/16 13:59:23;;;;;;;5.40;3.30;;;;;;;29.67;45.13;101547.44;15796155;28;20040;-65
2023/08/16 14:07:01;;;;;;;5.50;3.10;;;;;;;29.32;45.59;101541.69;15796747;28;20054;-65
2023/08/16 14:14:36;;;;;;;5.75;2.95;;;;;;;29.65;45.37;101530.31;15781713;28;20127;-64
2023/08/16 14:22:10;;;;;;;9.52;3.55;;;;;;;28.65;45.34;101525.97;15807573;28;20068;-65
2023/08/16 14:29:44;;;;;;;7.40;3.67;;;;;;;28.81;47.94;101525.59;15789124;28;20040;-65
2023/08/16 14:37:19;;;;;;;5.85;3.53;;;;;;;28.49;48.52;101524.69;15788118;28;20135;-63
2023/08/16 14:44:52;;;;;;;5.82;3.55;;;;;;;28.60;48.27;101511.47;15771467;28;20048;-63
2023/08/16 14:52:27;;;;;;;6.85;3.83;;;;;;;28.35;48.33;101515.63;15805569;28;20052;-62
2023/08/16 15:00:00;;;;;;;4.47;3.50;;;;;;;28.50;48.24;101508.97;15771216;28;20157;-63
2023/08/16 15:07:34;;;;;;;5.78;3.50;;;;;;;28.68;49.88;101511.53;15795369;22;20053;-55
2023/08/16 15:15:09;;;;;;;4.30;3.60;;;;;;;28.64;49.85;101509.72;15652284;28;20114;-55
2023/08/16 15:22:43;;;;;;;4.32;3.15;;;;;;;28.60;49.16;101515.03;15685744;28;20061;-57
2023/08/16 15:30:16;;;;;;;3.67;3.25;;;;;;;28.67;48.51;101501.59;15662029;28;20055;-56
2023/08/16 15:37:50;;;;;;;4.75;3.20;;;;;;;28.90;48.34;101507.94;15683513;28;20045;-55
2023/08/16 15:45:23;;;;;;;3.90;3.17;;;;;;;28.40;47.38;101510.84;15683712;28;20136;-56
2023/08/16 15:52:58;;;;;;;5.80;2.88;;;;;;;27.68;47.08;101518.97;15682808;28;20037;-57
2023/08/16 16:00:31;;;;;;;4.25;2.95;;;;;;;27.87;47.18;101519.69;15682730;28;20100;-56
2023/08/16 16:08:05;;;;;;;3.78;2.90;;;;;;;27.67;48.28;101518.16;15681831;28;20103;-54
2023/08/16 16:15:39;;;;;;;4.30;2.90;;;;;;;28.02;48.72;101512.22;15637899;28;20053;-56
2023/08/16 16:23:13;;;;;;;6.30;3.10;;;;;;;27.86;47.73;101506.22;15620509;28;20405;-58
2023/08/16 16:30:46;;;;;;;9.18;2.78;;;;;;;28.18;48.39;101508.00;15619803;28;20080;-59
2023/08/16 16:38:21;;;;;;;4.63;2.90;;;;;;;27.63;48.19;101497.00;15612284;28;20057;-57
2023/08/16 16:45:55;;;;;;;4.03;2.83;;;;;;;27.98;47.47;101506.50;15593718;28;20049;-56
2023/08/16 16:53:30;;;;;;;6.47;3.03;;;;;;;27.52;49.03;101512.94;15613456;28;20045;-56
2023/08/16 17:01:03;;;;;;;6.05;4.65;;;;;;;27.79;49.57;101509.38;15609801;28;20386;-56
2023/08/16 17:08:38;;;;;;;4.75;3.00;;;;;;;27.69;50.97;101501.28;15614326;28;20049;-57
2023/08/16 17:16:13;;;;;;;5.30;3.22;;;;;;;27.68;50.47;101503.22;15662321;28;20049;-56
2023/08/16 17:23:48;;;;;;;4.53;3.25;;;;;;;26.87;50.67;101513.81;15676371;28;20182;-56
2023/08/16 17:31:22;;;;;;;7.35;3.50;;;;;;;27.45;50.20;101518.03;15672217;28;20374;-57
2023/08/16 17:38:57;;;;;;;4.10;3.25;;;;;;;27.38;52.01;101510.16;15669472;28;20043;-55
2023/08/16 17:46:31;;;;;;;6.00;3.47;;;;;;;27.22;52.31;101517.06;15673850;28;20409;-55
2023/08/16 17:54:06;;;;;;;5.90;3.30;;;;;;;26.98;53.15;101528.22;15688680;28;20083;-56
2023/08/16 18:01:39;;;;;;;7.47;3.40;;;;;;;26.72;54.55;101541.63;15686601;28;20075;-56
2023/08/16 18:09:14;;;;;;;4.97;3.40;;;;;;;26.66;54.29;101540.03;15689195;28;20049;-56
2023/08/16 18:16:46;;;;;;;6.00;4.03;;;;;;;26.39;55.41;101548.94;15687084;28;20445;-55
2023/08/16 18:24:21;;;;;;;6.45;3.78;;;;;;;26.34;55.49;101549.00;15683165;28;20068;-57
2023/08/16 18:31:54;;;;;;;6.13;3.78;;;;;;;26.01;56.22;101531.56;15688155;28;20048;-57
2023/08/16 18:39:29;;;;;;;7.78;3.88;;;;;;;26.05;56.01;101565.63;15688324;28;20111;-55
2023/08/16 18:47:02;;;;;;;6.28;3.90;;;;;;;25.86;56.20;101563.66;15680024;28;20075;-56
2023/08/16 18:54:36;;;;;;;5.50;4.10;;;;;;;25.72;56.42;101564.63;15684521;28;20051;-55
2023/08/16 19:02:09;;;;;;;6.00;3.60;;;;;;;25.72;56.04;101570.13;15685682;28;20410;-56
2023/08/16 19:09:43;;;;;;;7.32;3.88;;;;;;;25.61;55.87;101570.25;15684084;28;20040;-56
2023/08/16 19:17:18;;;;;;;6.63;4.85;;;;;;;25.61;55.80;101567.50;15630844;28;20056;-55
2023/08/16 19:24:53;;;;;;;7.82;4.50;;;;;;;25.27;56.63;101578.53;15623144;28;20438;-55
2023/08/16 19:32:28;;;;;;;6.65;3.65;;;;;;;25.00;56.53;101568.03;15617670;28;20061;-56
2023/08/16 19:40:04;;;;;;;4.30;3.55;;;;;;;24.78;55.96;101584.13;15614555;28;20045;-55
2023/08/16 19:47:37;;;;;;;7.20;3.85;;;;;;;24.68;56.43;101593.25;15619279;28;20077;-55
2023/08/16 19:55:12;;;;;;;4.30;3.25;;;;;;;25.09;56.78;101593.00;15621657;28;20056;-58
2023/08/16 20:02:44;;;;;;;14.40;9.52;;;;;;;24.58;55.79;101585.91;15621048;28;20038;-56
2023/08/16 20:10:21;;;;;;;5.63;4.13;;;;;;;24.39;56.65;101596.72;15620172;28;20083;-55
2023/08/16 20:17:57;;;;;;;6.25;4.05;;;;;;;24.22;56.83;101601.69;15679031;28;20107;-53
2023/08/16 20:25:32;;;;;;;6.88;4.63;;;;;;;24.13;56.05;101573.19;15681162;28;20068;-56
2023/08/16 20:33:05;;;;;;;9.30;4.63;;;;;;;24.12;57.27;101609.97;15680242;28;20045;-55
2023/08/16 20:40:40;;;;;;;5.95;4.25;;;;;;;23.70;58.07;101604.88;15677536;28;20041;-54
2023/08/16 20:48:13;;;;;;;7.93;4.50;;;;;;;23.81;58.22;101593.59;15679874;28;20049;-55
2023/08/16 20:55:47;;;;;;;7.03;4.43;;;;;;;23.55;59.14;101590.06;15678299;28;20041;-57
2023/08/16 21:03:20;;;;;;;6.68;4.78;;;;;;;23.60;59.25;101570.06;15674019;28;20567;-56
2023/08/16 21:10:54;;;;;;;8.88;5.18;;;;;;;23.19;60.18;101570.09;15669684;28;20510;-56
2023/08/16 21:18:27;;;;;;;8.40;4.75;;;;;;;23.06;60.95;101574.22;15616166;28;20049;-55
2023/08/16 21:26:02;;;;;;;8.27;5.18;;;;;;;22.88;61.58;101571.97;15615539;28;20418;-56
2023/08/16 21:33:35;;;;;;;6.35;4.32;;;;;;;22.98;60.47;101569.25;15596523;28;20073;-54
2023/08/16 21:41:11;;;;;;;6.53;4.20;;;;;;;22.89;60.83;101565.44;15609243;28;20053;-56
2023/08/16 21:48:43;;;;;;;9.13;4.30;;;;;;;22.41;61.98;101578.44;15614079;28;20057;-55
2023/08/16 21:56:18;;;;;;;8.27;4.25;;;;;;;22.31;62.37;101571.03;15609576;28;20045;-56
2023/08/16 22:03:51;;;;;;;6.03;3.20;;;;;;;22.31;61.44;101570.22;15581704;28;20050;-56
2023/08/16 22:11:26;;;;;;;6.35;3.58;;;;;;;22.49;61.11;101574.38;15616147;28;20075;-55
2023/08/16 22:18:59;;;;;;;6.78;3.30;;;;;;;22.78;60.25;101564.56;15675885;28;20045;-55
2023/08/16 22:26:34;;;;;;;7.07;3.50;;;;;;;22.15;62.40;101566.63;15676000;28;20127;-53
2023/08/16 22:34:08;;;;;;;7.88;3.13;;;;;;;22.36;61.38;101581.16;15670161;28;20045;-54
2023/08/16 22:41:42;;;;;;;5.47;3.22;;;;;;;22.68;61.26;101594.66;15687574;28;20049;-52
2023/08/16 22:49:15;;;;;;;5.43;3.17;;;;;;;22.11;62.32;101601.88;15687311;28;20460;-54
2023/08/16 22:56:50;;;;;;;4.18;3.10;;;;;;;21.84;63.30;101593.75;15685113;28;20049;-55
2023/08/16 23:04:22;;;;;;;6.25;3.03;;;;;;;21.73;63.56;101604.88;15664457;28;20052;-55
2023/08/16 23:11:58;;;;;;;4.88;3.00;;;;;;;21.33;65.38;101626.19;15676021;28;20091;-54
2023/08/16 23:19:31;;;;;;;6.30;3.30;;;;;;;21.27;65.35;101605.38;15623433;28;20406;-55
2023/08/16 23:27:05;;;;;;;8.63;3.40;;;;;;;21.22;65.72;101607.25;15622659;28;20145;-54
2023/08/16 23:34:40;;;;;;;7.97;3.10;;;;;;;21.18;65.96;101606.94;15622465;28;20069;-53
2023/08/16 23:42:18;;;;;;;5.13;3.20;;;;;;;21.36;65.51;101624.88;15621816;28;20111;-53
2023/08/16 23:49:51;;;;;;;5.90;3.63;;;;;;;21.43;65.80;101638.28;15621044;28;20469;-54
2023/08/16 23:57:25;;;;;;;8.40;3.30;;;;;;;20.92;66.58;101626.88;15621050;28;20045;-53
